St Andrew — WDC2812 — position and weather

sailwx.info

Track history (hours):
 
Tides and Currents Weather Stations Pressure Air Temp Water Temp Dewpoint Dewpoint Depression Visibility Wind Speed Wind Dir Waves Ship Positions

St Andrew

Owner: Marquette Transportation Company Gulf-Inland, LLC, Jefferson, LA. More information available from US FCC via Universal Licensing System and Coast Guard Vessel Documentation Center.

Last reported at 2018-May-28 03:00 UTC. Time now 2018-May-28 03:04 UTC.
Position N 30°02' W 093°15'.

Length 22 m; draft 3.2 m.

Type: Tug. MMSI: 366998020.

Date/timePositionNaut miles runAvg speedWind from/ knotsBaromVisibWave heightAir tempDewpointWater temp
2018-May-28 03:00N 30°02' W 093°15'2 3.3
2018-May-28 02:30N 30°01' W 093°14'1 2.0
2018-May-28 02:00N 29°60' W 093°13'0 0.0
2018-May-28 01:30N 29°60' W 093°13'0 0.0
2018-May-28 01:00N 29°60' W 093°13'0 0.1
2018-May-28 00:30N 29°60' W 093°13'0 0.1
2018-May-28 00:00N 29°60' W 093°13'0 0.1
2018-May-27 23:30N 29°60' W 093°13'0 0.0
2018-May-27 23:00N 29°60' W 093°13'0 0.2
2018-May-27 22:30N 29°60' W 093°13'0 0.1
2018-May-27 22:00N 29°60' W 093°13'0 0.1
2018-May-27 21:30N 29°60' W 093°13'0 0.5
2018-May-27 21:00N 29°59' W 093°13'1 2.4
2018-May-27 20:30N 29°59' W 093°12'1 2.4
2018-May-27 20:00N 29°58' W 093°11'1 1.8
2018-May-27 19:30N 29°57' W 093°10'1 1.3
2018-May-27 19:00N 29°56' W 093°10'1 1.8
2018-May-27 18:30N 29°56' W 093°09'0 0.0
2018-May-27 18:00N 29°56' W 093°09'0 0.1
2018-May-27 17:30N 29°56' W 093°09'0 0.0
2018-May-27 17:00N 29°56' W 093°09'0 0.0
2018-May-27 16:30N 29°56' W 093°09'0 0.3
2018-May-27 16:00N 29°56' W 093°09'0 0.1
2018-May-27 15:30N 29°56' W 093°09'0 0.0
2018-May-27 15:00N 29°56' W 093°09'0 0.1
2018-May-27 14:30N 29°56' W 093°09'0 0.5
2018-May-27 14:00N 29°56' W 093°09'2 3.6
2018-May-27 13:30N 29°56' W 093°07'39 3.3
2018-May-27 01:47N 29°51' W 092°22'1 3.5
2018-May-27 01:29N 29°51' W 092°21'1 2.9
2018-May-27 01:00N 29°50' W 092°19'0 0.0
2018-May-27 00:30N 29°50' W 092°19'0 0.0
2018-May-27 00:00N 29°50' W 092°19'1 1.3
2018-May-26 23:30N 29°50' W 092°18'2 3.9
2018-May-26 23:00N 29°49' W 092°17'2 3.7
2018-May-26 22:30N 29°48' W 092°15'2 3.2
2018-May-26 22:00N 29°47' W 092°13'1 1.7
2018-May-26 21:30N 29°47' W 092°12'1 2.1
2018-May-26 21:00N 29°47' W 092°11'0 0.0
2018-May-26 20:30N 29°47' W 092°11'0 0.1
2018-May-26 20:00N 29°47' W 092°11'0 0.2
2018-May-26 19:28N 29°47' W 092°11'1 1.5
2018-May-26 19:00N 29°47' W 092°10'2 4.5
2018-May-26 18:30N 29°47' W 092°08'2 4.8
2018-May-26 18:00N 29°48' W 092°05'2 4.7
2018-May-26 17:30N 29°49' W 092°03'2 3.8
2018-May-26 17:00N 29°50' W 092°01'2 4.2
2018-May-26 16:30N 29°50' W 091°58'63 3.5
2018-May-25 22:31N 29°32' W 090°49'0 4.3
2018-May-25 22:28N 29°32' W 090°49'2 4.3
2018-May-25 21:59N 29°32' W 090°46'2 3.9
2018-May-25 21:30N 29°34' W 090°45'2 3.5
2018-May-25 20:59N 29°34' W 090°43'2 3.3
2018-May-25 20:30N 29°36' W 090°43'1 2.5
2018-May-25 20:00N 29°37' W 090°42'2 3.3
2018-May-25 19:30N 29°36' W 090°40'1 2.8
2018-May-25 19:00N 29°35' W 090°38'2 3.8
2018-May-25 18:30N 29°35' W 090°36'2 3.7
2018-May-25 18:00N 29°34' W 090°34'3 3.8
2018-May-25 17:20N 29°34' W 090°31'28 1.2
2018-May-24 17:17N 29°57' W 090°13'27 0.8
2018-May-23 07:29N 29°34' W 090°29'2 3.8
2018-May-23 07:00N 29°34' W 090°31'4 3.7
2018-May-23 05:58N 29°35' W 090°35'1 3.0
2018-May-23 05:30N 29°35' W 090°37'2 4.1
2018-May-23 05:00N 29°36' W 090°39'2 3.7
2018-May-23 04:30N 29°36' W 090°41'1 2.6
2018-May-23 04:00N 29°36' W 090°43'2 3.2
2018-May-23 03:30N 29°35' W 090°43'1 2.6
2018-May-23 03:00N 29°34' W 090°44'1 2.1
2018-May-23 02:30N 29°33' W 090°45'0 0.2
2018-May-23 02:00N 29°33' W 090°45'0 0.4
2018-May-23 01:30N 29°33' W 090°45'0 0.0
2018-May-23 01:00N 29°33' W 090°45'0 0.9
2018-May-23 00:30N 29°33' W 090°46'1 3.0
2018-May-23 00:00N 29°32' W 090°47'2 3.7
2018-May-22 23:30N 29°32' W 090°49'  
2018-May-20 14:42N 29°56' W 093°09'1 3.6
2018-May-20 14:30N 29°56' W 093°10'2 3.9
2018-May-20 14:00N 29°58' W 093°11'2 3.9
2018-May-20 13:30N 29°59' W 093°13'2 3.6
2018-May-20 13:00N 30°01' W 093°14'2 3.6
2018-May-20 12:30N 30°02' W 093°15'2 3.7
2018-May-20 12:00N 30°04' W 093°16'1 2.6
2018-May-20 11:30N 30°05' W 093°17'1 1.7
2018-May-20 11:00N 30°05' W 093°18'1 2.2
2018-May-20 10:30N 30°06' W 093°19'0 0.6
2018-May-20 10:00N 30°06' W 093°19'0 0.2
2018-May-20 09:30N 30°06' W 093°19'0 0.1
2018-May-20 09:00N 30°06' W 093°19'0 0.0
2018-May-20 08:30N 30°06' W 093°19'0 0.0
2018-May-20 08:00N 30°06' W 093°19'0 0.0
2018-May-20 07:30N 30°06' W 093°19'0 0.1
2018-May-20 07:00N 30°06' W 093°19'0 0.0
2018-May-20 06:30N 30°06' W 093°19'0 0.1
2018-May-20 06:00N 30°06' W 093°19'0 0.8
2018-May-20 05:31N 30°06' W 093°19'1 2.8
2018-May-20 05:00N 30°05' W 093°20'2 3.5
2018-May-20 04:30N 30°04' W 093°22'2 4.8
2018-May-20 04:00N 30°04' W 093°25'2 4.6
2018-May-20 03:30N 30°04' W 093°27'2 3.5
2018-May-20 03:00N 30°04' W 093°30'2 4.5
2018-May-20 02:30N 30°04' W 093°32'9 5.0
2018-May-20 00:47N 30°03' W 093°42'1 4.6
2018-May-20 00:29N 30°03' W 093°44'2 3.7
2018-May-20 00:00N 30°01' W 093°45'3 5.7
2018-May-19 23:28N 29°59' W 093°47'2 5.2
2018-May-19 23:00N 29°59' W 093°50'3 5.2
2018-May-19 22:30N 29°57' W 093°52'3 6.6
2018-May-19 22:00N 29°54' W 093°54'3 6.5
2018-May-19 21:30N 29°51' W 093°56'3 5.5
2018-May-19 21:00N 29°49' W 093°58'2 4.2
2018-May-19 20:30N 29°48' W 094°00'2 4.9
2018-May-19 20:00N 29°46' W 094°02'2 4.5
2018-May-19 19:30N 29°45' W 094°04'2 4.8
2018-May-19 19:00N 29°43' W 094°07'2 4.7
2018-May-19 18:30N 29°42' W 094°09'2 4.4
2018-May-19 18:00N 29°41' W 094°11'2 3.2
2018-May-19 17:30N 29°40' W 094°13'2 4.1
2018-May-19 16:59N 29°40' W 094°15'34 4.3
2018-May-19 09:13N 29°22' W 094°48'1 4.1
2018-May-19 09:00N 29°23' W 094°49'9 5.3
2018-May-19 07:20N 29°31' W 094°53'2 6.4
2018-May-19 07:00N 29°33' W 094°54'3 5.0
2018-May-19 06:30N 29°35' W 094°56'3 5.0
2018-May-19 06:00N 29°37' W 094°57'3 6.5
2018-May-19 05:30N 29°40' W 094°59'3 5.8
2018-May-19 04:57N 29°42' W 095°01'6 0.3
2018-May-18 10:49N 29°47' W 095°04'0 0.0
2018-May-18 10:29N 29°47' W 095°04'0 0.0
2018-May-18 10:00N 29°47' W 095°04'0 0.8
2018-May-18 09:30N 29°47' W 095°04'1 2.4
2018-May-18 09:00N 29°46' W 095°04'3 6.3
2018-May-18 08:30N 29°44' W 095°02'3 5.7
2018-May-18 08:00N 29°42' W 094°59'3 6.3
2018-May-18 07:30N 29°39' W 094°58'3 6.7
2018-May-18 07:00N 29°36' W 094°57'3 6.5
2018-May-18 06:30N 29°33' W 094°54'3 6.2
2018-May-18 06:01N 29°30' W 094°52'3 6.0
2018-May-18 05:30N 29°28' W 094°51'3 5.6
2018-May-18 04:59N 29°25' W 094°50'2 4.9
2018-May-18 04:30N 29°23' W 094°48'2 4.4
2018-May-18 04:00N 29°23' W 094°46'1 2.9
2018-May-18 03:30N 29°24' W 094°45'  
Track history (hours):
 
Tides and Currents Weather Stations Pressure Air Temp Water Temp Dewpoint Dewpoint Depression Visibility Wind Speed Wind Dir Waves Ship Positions

St Andrew

Owner: Marquette Transportation Company Gulf-Inland, LLC, Jefferson, LA. More information available from US FCC via Universal Licensing System and Coast Guard Vessel Documentation Center.

Last reported at 2018-May-28 03:00 UTC. Time now 2018-May-28 03:04 UTC.
Position N 30°02' W 093°15'.

Length 22 m; draft 3.2 m.

Type: Tug. MMSI: 366998020.

Date/timePositionNaut miles runAvg speedWind from/ knotsBaromVisibWave heightAir tempDewpointWater temp
2018-May-28 03:00N 30°02' W 093°15'2 3.3
2018-May-28 02:30N 30°01' W 093°14'1 2.0
2018-May-28 02:00N 29°60' W 093°13'0 0.0
2018-May-28 01:30N 29°60' W 093°13'0 0.0
2018-May-28 01:00N 29°60' W 093°13'0 0.1
2018-May-28 00:30N 29°60' W 093°13'0 0.1
2018-May-28 00:00N 29°60' W 093°13'0 0.1
2018-May-27 23:30N 29°60' W 093°13'0 0.0
2018-May-27 23:00N 29°60' W 093°13'0 0.2
2018-May-27 22:30N 29°60' W 093°13'0 0.1
2018-May-27 22:00N 29°60' W 093°13'0 0.1
2018-May-27 21:30N 29°60' W 093°13'0 0.5
2018-May-27 21:00N 29°59' W 093°13'1 2.4
2018-May-27 20:30N 29°59' W 093°12'1 2.4
2018-May-27 20:00N 29°58' W 093°11'1 1.8
2018-May-27 19:30N 29°57' W 093°10'1 1.3
2018-May-27 19:00N 29°56' W 093°10'1 1.8
2018-May-27 18:30N 29°56' W 093°09'0 0.0
2018-May-27 18:00N 29°56' W 093°09'0 0.1
2018-May-27 17:30N 29°56' W 093°09'0 0.0
2018-May-27 17:00N 29°56' W 093°09'0 0.0
2018-May-27 16:30N 29°56' W 093°09'0 0.3
2018-May-27 16:00N 29°56' W 093°09'0 0.1
2018-May-27 15:30N 29°56' W 093°09'0 0.0
2018-May-27 15:00N 29°56' W 093°09'0 0.1
2018-May-27 14:30N 29°56' W 093°09'0 0.5
2018-May-27 14:00N 29°56' W 093°09'2 3.6
2018-May-27 13:30N 29°56' W 093°07'39 3.3
2018-May-27 01:47N 29°51' W 092°22'1 3.5
2018-May-27 01:29N 29°51' W 092°21'1 2.9
2018-May-27 01:00N 29°50' W 092°19'0 0.0
2018-May-27 00:30N 29°50' W 092°19'0 0.0
2018-May-27 00:00N 29°50' W 092°19'1 1.3
2018-May-26 23:30N 29°50' W 092°18'2 3.9
2018-May-26 23:00N 29°49' W 092°17'2 3.7
2018-May-26 22:30N 29°48' W 092°15'2 3.2
2018-May-26 22:00N 29°47' W 092°13'1 1.7
2018-May-26 21:30N 29°47' W 092°12'1 2.1
2018-May-26 21:00N 29°47' W 092°11'0 0.0
2018-May-26 20:30N 29°47' W 092°11'0 0.1
2018-May-26 20:00N 29°47' W 092°11'0 0.2
2018-May-26 19:28N 29°47' W 092°11'1 1.5
2018-May-26 19:00N 29°47' W 092°10'2 4.5
2018-May-26 18:30N 29°47' W 092°08'2 4.8
2018-May-26 18:00N 29°48' W 092°05'2 4.7
2018-May-26 17:30N 29°49' W 092°03'2 3.8
2018-May-26 17:00N 29°50' W 092°01'2 4.2
2018-May-26 16:30N 29°50' W 091°58'63 3.5
2018-May-25 22:31N 29°32' W 090°49'0 4.3
2018-May-25 22:28N 29°32' W 090°49'2 4.3
2018-May-25 21:59N 29°32' W 090°46'2 3.9
2018-May-25 21:30N 29°34' W 090°45'2 3.5
2018-May-25 20:59N 29°34' W 090°43'2 3.3
2018-May-25 20:30N 29°36' W 090°43'1 2.5
2018-May-25 20:00N 29°37' W 090°42'2 3.3
2018-May-25 19:30N 29°36' W 090°40'1 2.8
2018-May-25 19:00N 29°35' W 090°38'2 3.8
2018-May-25 18:30N 29°35' W 090°36'2 3.7
2018-May-25 18:00N 29°34' W 090°34'3 3.8
2018-May-25 17:20N 29°34' W 090°31'28 1.2
2018-May-24 17:17N 29°57' W 090°13'27 0.8
2018-May-23 07:29N 29°34' W 090°29'2 3.8
2018-May-23 07:00N 29°34' W 090°31'4 3.7
2018-May-23 05:58N 29°35' W 090°35'1 3.0
2018-May-23 05:30N 29°35' W 090°37'2 4.1
2018-May-23 05:00N 29°36' W 090°39'2 3.7
2018-May-23 04:30N 29°36' W 090°41'1 2.6
2018-May-23 04:00N 29°36' W 090°43'2 3.2
2018-May-23 03:30N 29°35' W 090°43'1 2.6
2018-May-23 03:00N 29°34' W 090°44'1 2.1
2018-May-23 02:30N 29°33' W 090°45'0 0.2
2018-May-23 02:00N 29°33' W 090°45'0 0.4
2018-May-23 01:30N 29°33' W 090°45'0 0.0
2018-May-23 01:00N 29°33' W 090°45'0 0.9
2018-May-23 00:30N 29°33' W 090°46'1 3.0
2018-May-23 00:00N 29°32' W 090°47'2 3.7
2018-May-22 23:30N 29°32' W 090°49'  
2018-May-20 14:42N 29°56' W 093°09'1 3.6
2018-May-20 14:30N 29°56' W 093°10'2 3.9
2018-May-20 14:00N 29°58' W 093°11'2 3.9
2018-May-20 13:30N 29°59' W 093°13'2 3.6
2018-May-20 13:00N 30°01' W 093°14'2 3.6
2018-May-20 12:30N 30°02' W 093°15'2 3.7
2018-May-20 12:00N 30°04' W 093°16'1 2.6
2018-May-20 11:30N 30°05' W 093°17'1 1.7
2018-May-20 11:00N 30°05' W 093°18'1 2.2
2018-May-20 10:30N 30°06' W 093°19'0 0.6
2018-May-20 10:00N 30°06' W 093°19'0 0.2
2018-May-20 09:30N 30°06' W 093°19'0 0.1
2018-May-20 09:00N 30°06' W 093°19'0 0.0
2018-May-20 08:30N 30°06' W 093°19'0 0.0
2018-May-20 08:00N 30°06' W 093°19'0 0.0
2018-May-20 07:30N 30°06' W 093°19'0 0.1
2018-May-20 07:00N 30°06' W 093°19'0 0.0
2018-May-20 06:30N 30°06' W 093°19'0 0.1
2018-May-20 06:00N 30°06' W 093°19'0 0.8
2018-May-20 05:31N 30°06' W 093°19'1 2.8
2018-May-20 05:00N 30°05' W 093°20'2 3.5
2018-May-20 04:30N 30°04' W 093°22'2 4.8
2018-May-20 04:00N 30°04' W 093°25'2 4.6
2018-May-20 03:30N 30°04' W 093°27'2 3.5
2018-May-20 03:00N 30°04' W 093°30'2 4.5
2018-May-20 02:30N 30°04' W 093°32'9 5.0
2018-May-20 00:47N 30°03' W 093°42'1 4.6
2018-May-20 00:29N 30°03' W 093°44'2 3.7
2018-May-20 00:00N 30°01' W 093°45'3 5.7
2018-May-19 23:28N 29°59' W 093°47'2 5.2
2018-May-19 23:00N 29°59' W 093°50'3 5.2
2018-May-19 22:30N 29°57' W 093°52'3 6.6
2018-May-19 22:00N 29°54' W 093°54'3 6.5
2018-May-19 21:30N 29°51' W 093°56'3 5.5
2018-May-19 21:00N 29°49' W 093°58'2 4.2
2018-May-19 20:30N 29°48' W 094°00'2 4.9
2018-May-19 20:00N 29°46' W 094°02'2 4.5
2018-May-19 19:30N 29°45' W 094°04'2 4.8
2018-May-19 19:00N 29°43' W 094°07'2 4.7
2018-May-19 18:30N 29°42' W 094°09'2 4.4
2018-May-19 18:00N 29°41' W 094°11'2 3.2
2018-May-19 17:30N 29°40' W 094°13'2 4.1
2018-May-19 16:59N 29°40' W 094°15'34 4.3
2018-May-19 09:13N 29°22' W 094°48'1 4.1
2018-May-19 09:00N 29°23' W 094°49'9 5.3
2018-May-19 07:20N 29°31' W 094°53'2 6.4
2018-May-19 07:00N 29°33' W 094°54'3 5.0
2018-May-19 06:30N 29°35' W 094°56'3 5.0
2018-May-19 06:00N 29°37' W 094°57'3 6.5
2018-May-19 05:30N 29°40' W 094°59'3 5.8
2018-May-19 04:57N 29°42' W 095°01'6 0.3
2018-May-18 10:49N 29°47' W 095°04'0 0.0
2018-May-18 10:29N 29°47' W 095°04'0 0.0
2018-May-18 10:00N 29°47' W 095°04'0 0.8
2018-May-18 09:30N 29°47' W 095°04'1 2.4
2018-May-18 09:00N 29°46' W 095°04'3 6.3
2018-May-18 08:30N 29°44' W 095°02'3 5.7
2018-May-18 08:00N 29°42' W 094°59'3 6.3
2018-May-18 07:30N 29°39' W 094°58'3 6.7
2018-May-18 07:00N 29°36' W 094°57'3 6.5
2018-May-18 06:30N 29°33' W 094°54'3 6.2
2018-May-18 06:01N 29°30' W 094°52'3 6.0
2018-May-18 05:30N 29°28' W 094°51'3 5.6
2018-May-18 04:59N 29°25' W 094°50'2 4.9
2018-May-18 04:30N 29°23' W 094°48'2 4.4
2018-May-18 04:00N 29°23' W 094°46'1 2.9
2018-May-18 03:30N 29°24' W 094°45'  

Dump ship's entire track history